Time;durP1;ratioP1;P1;durP2;ratioP2;P2;SDS_P1;SDS_P2;PMS_P1;PMS_P2;Temp;Humidity;BMP_temperature;BMP_pressure;BME280_temperature;BME280_humidity;BME280_pressure;Samples;Min_cycle;Max_cycle;Signal;HPM_P1;HPM_P2
2022/12/02 00:00:49;;;;;;;36.00;22.03;;;5.50;40.90;;;;;;5005098;28;20472;-74
2022/12/02 00:03:19;;;;;;;37.27;19.53;;;5.50;41.00;;;;;;5001785;28;20456;-75
2022/12/02 00:05:50;;;;;;;38.80;22.47;;;5.50;41.00;;;;;;5001160;28;20518;-74
2022/12/02 00:08:20;;;;;;;36.20;20.90;;;5.50;40.90;;;;;;4999860;28;20586;-74
2022/12/02 00:10:48;;;;;;;34.67;21.50;;;5.50;41.00;;;;;;5004260;28;20832;-74
2022/12/02 00:13:22;;;;;;;37.33;21.70;;;5.50;40.90;;;;;;4998898;28;20495;-74
2022/12/02 00:15:51;;;;;;;40.03;21.80;;;5.50;41.00;;;;;;4998772;28;20455;-75
2022/12/02 00:18:19;;;;;;;41.17;22.63;;;5.50;41.00;;;;;;5003061;28;20491;-75
2022/12/02 00:20:46;;;;;;;36.17;21.50;;;5.50;41.00;;;;;;5002747;28;20456;-74
2022/12/02 00:23:14;;;;;;;38.60;21.80;;;5.50;41.00;;;;;;4995359;28;21218;-74
2022/12/02 00:25:44;;;;;;;36.00;22.30;;;5.50;41.00;;;;;;4994638;28;20453;-74
2022/12/02 00:28:11;;;;;;;34.70;21.43;;;5.50;41.00;;;;;;4999552;28;20484;-73
2022/12/02 00:30:38;;;;;;;39.93;23.27;;;5.50;40.90;;;;;;5000195;28;20983;-74
2022/12/02 00:33:04;;;;;;;33.93;20.53;;;5.50;40.90;;;;;;4997975;28;20491;-74
2022/12/02 00:35:31;;;;;;;36.20;21.03;;;5.50;41.00;;;;;;5001315;28;20467;-74
2022/12/02 00:37:58;;;;;;;38.07;23.93;;;5.50;40.90;;;;;;4998721;28;20480;-74
2022/12/02 00:40:26;;;;;;;44.43;24.70;;;5.50;41.00;;;;;;5009736;28;20458;-74
2022/12/02 00:42:53;;;;;;;41.87;23.30;;;5.50;41.00;;;;;;5001140;28;20456;-74
2022/12/02 00:48:05;;;;;;;39.90;23.57;;;5.50;41.00;;;;;;5005005;28;20848;-73
2022/12/02 00:50:31;;;;;;;38.80;22.73;;;5.50;41.00;;;;;;5005234;28;20463;-73
2022/12/02 00:52:58;;;;;;;43.53;26.00;;;5.50;41.00;;;;;;5005835;28;20631;-73
2022/12/02 00:55:26;;;;;;;46.23;26.57;;;5.50;41.00;;;;;;5006277;28;20459;-73
2022/12/02 00:57:53;;;;;;;45.67;23.90;;;5.50;41.00;;;;;;5003374;28;20487;-73
2022/12/02 01:00:20;;;;;;;43.30;23.20;;;5.50;41.00;;;;;;5006306;28;20468;-73
2022/12/02 01:02:47;;;;;;;43.17;24.67;;;5.50;41.00;;;;;;5001551;28;20552;-73
2022/12/02 01:05:13;;;;;;;48.20;23.73;;;5.40;40.90;;;;;;5005733;28;20460;-74
2022/12/02 01:07:40;;;;;;;44.03;26.00;;;5.40;41.00;;;;;;5005647;28;20489;-74
2022/12/02 01:10:08;;;;;;;44.27;24.63;;;5.40;41.00;;;;;;4995925;28;20474;-75
2022/12/02 01:12:36;;;;;;;50.40;26.10;;;5.40;41.00;;;;;;5000610;28;20479;-73
2022/12/02 01:15:03;;;;;;;39.20;23.87;;;5.40;41.10;;;;;;5008146;28;20467;-73
2022/12/02 01:17:30;;;;;;;42.70;23.70;;;5.40;41.00;;;;;;4998187;28;20569;-75
2022/12/02 01:19:57;;;;;;;45.57;25.97;;;5.40;41.10;;;;;;5008225;28;20467;-75
2022/12/02 01:22:23;;;;;;;42.87;25.40;;;5.40;41.20;;;;;;5000047;28;20464;-75
2022/12/02 01:24:50;;;;;;;47.10;24.60;;;5.40;41.10;;;;;;5001572;28;20482;-73
2022/12/02 01:27:17;;;;;;;46.23;25.43;;;5.40;41.20;;;;;;4997682;28;20877;-75
2022/12/02 01:29:45;;;;;;;42.27;24.53;;;5.40;41.20;;;;;;5007358;28;20470;-75
2022/12/02 01:32:12;;;;;;;40.03;23.07;;;5.40;41.20;;;;;;4995830;28;20479;-74
2022/12/02 01:34:40;;;;;;;34.33;19.83;;;5.40;41.20;;;;;;5006929;28;20464;-74
2022/12/02 01:37:07;;;;;;;30.80;18.23;;;5.40;41.10;;;;;;4998421;28;20550;-75
2022/12/02 01:39:33;;;;;;;28.37;16.30;;;5.40;40.90;;;;;;5001899;28;20480;-74
2022/12/02 01:42:00;;;;;;;28.33;15.97;;;5.30;40.80;;;;;;5002859;28;20457;-74
2022/12/02 01:44:27;;;;;;;30.67;17.30;;;5.30;40.80;;;;;;4994649;28;20722;-74
2022/12/02 01:46:55;;;;;;;25.53;15.70;;;5.30;40.70;;;;;;5000234;28;20462;-74
2022/12/02 01:49:22;;;;;;;30.47;16.40;;;5.30;40.70;;;;;;4999075;28;20476;-73
2022/12/02 01:51:49;;;;;;;30.07;18.13;;;5.30;40.70;;;;;;5004475;28;20459;-73
2022/12/02 01:54:16;;;;;;;36.70;20.30;;;5.30;40.70;;;;;;5004034;28;20463;-75
2022/12/02 01:56:43;;;;;;;32.27;19.10;;;5.20;40.60;;;;;;5004696;28;20456;-75
2022/12/02 01:59:11;;;;;;;33.50;19.97;;;5.20;40.60;;;;;;5002398;28;20482;-74
2022/12/02 02:01:38;;;;;;;33.83;19.03;;;5.20;40.50;;;;;;5002843;28;21085;-73
2022/12/02 02:04:08;;;;;;;34.37;20.20;;;5.20;40.60;;;;;;5004647;28;20460;-74
2022/12/02 02:06:38;;;;;;;37.83;22.00;;;5.20;40.60;;;;;;5002196;28;20467;-73
2022/12/02 02:09:06;;;;;;;34.10;19.53;;;5.20;40.70;;;;;;5001718;28;20491;-73
2022/12/02 02:11:33;;;;;;;30.53;18.30;;;5.20;40.60;;;;;;4997252;28;20456;-74
2022/12/02 02:14:01;;;;;;;28.60;17.50;;;5.20;40.60;;;;;;5002492;28;20480;-75
2022/12/02 02:16:28;;;;;;;28.77;16.97;;;5.20;40.60;;;;;;5000622;28;20904;-75
2022/12/02 02:18:55;;;;;;;29.67;15.87;;;5.20;40.60;;;;;;5007108;28;20475;-74
2022/12/02 02:21:26;;;;;;;32.40;17.80;;;5.20;40.50;;;;;;4999719;28;20472;-75
2022/12/02 02:23:55;;;;;;;28.13;16.97;;;5.20;40.60;;;;;;5005032;28;21002;-74
2022/12/02 02:26:22;;;;;;;28.90;17.23;;;5.20;40.50;;;;;;5002826;28;21022;-74
2022/12/02 02:28:50;;;;;;;27.30;15.73;;;5.30;40.60;;;;;;5005646;28;20472;-74
2022/12/02 02:31:17;;;;;;;29.80;16.67;;;5.20;40.40;;;;;;4998113;28;20468;-74
2022/12/02 02:33:44;;;;;;;26.50;14.77;;;5.20;40.20;;;;;;4999897;28;20477;-74
2022/12/02 02:36:11;;;;;;;27.07;16.83;;;5.20;40.10;;;;;;5000897;28;20463;-74
2022/12/02 02:38:38;;;;;;;23.00;14.20;;;5.20;40.30;;;;;;5007754;28;20488;-74
2022/12/02 02:41:07;;;;;;;25.40;14.63;;;5.10;40.40;;;;;;5002168;28;20464;-73
2022/12/02 02:43:36;;;;;;;24.97;13.93;;;5.10;40.50;;;;;;5007508;28;20456;-74
2022/12/02 02:46:04;;;;;;;24.30;14.50;;;5.00;40.30;;;;;;5003864;28;20471;-73
2022/12/02 02:48:31;;;;;;;21.90;13.37;;;5.00;40.40;;;;;;5006941;28;21051;-73
2022/12/02 02:50:58;;;;;;;20.10;11.70;;;5.00;40.30;;;;;;5006335;28;20464;-74
2022/12/02 02:53:26;;;;;;;22.87;12.50;;;5.00;40.40;;;;;;5005981;28;20471;-74
2022/12/02 02:55:53;;;;;;;18.80;11.27;;;4.90;40.30;;;;;;5002323;28;20460;-75
2022/12/02 02:58:23;;;;;;;21.70;13.53;;;4.90;40.40;;;;;;5001194;28;20480;-73
2022/12/02 03:00:53;;;;;;;20.07;11.80;;;4.90;40.70;;;;;;5000335;28;20987;-74
2022/12/02 03:03:23;;;;;;;22.07;12.40;;;4.80;40.70;;;;;;4998106;28;20452;-73
2022/12/02 03:05:52;;;;;;;23.43;12.50;;;4.80;40.70;;;;;;5002788;28;20475;-74
2022/12/02 03:08:20;;;;;;;23.97;12.77;;;4.80;40.80;;;;;;5006337;28;20484;-74
2022/12/02 03:10:46;;;;;;;19.30;12.60;;;4.70;41.00;;;;;;5001764;28;20472;-73
2022/12/02 03:13:13;;;;;;;21.10;12.70;;;4.70;41.30;;;;;;5004458;28;20487;-73
2022/12/02 03:15:42;;;;;;;20.33;11.77;;;4.70;41.30;;;;;;5001444;28;20469;-73
2022/12/02 03:18:09;;;;;;;17.40;10.93;;;4.70;41.30;;;;;;4999836;28;20480;-73
2022/12/02 03:20:36;;;;;;;20.73;12.97;;;4.70;41.00;;;;;;4999960;28;20479;-74
2022/12/02 03:23:03;;;;;;;21.00;11.17;;;4.60;41.00;;;;;;5001350;28;20839;-74
2022/12/02 03:25:30;;;;;;;19.17;11.07;;;4.60;41.20;;;;;;5003989;28;20460;-74
2022/12/02 03:27:58;;;;;;;22.93;12.33;;;4.60;41.30;;;;;;4999270;28;20537;-74
2022/12/02 03:30:25;;;;;;;20.03;13.50;;;4.60;41.30;;;;;;5004698;28;20456;-73
2022/12/02 03:32:53;;;;;;;20.90;11.30;;;4.50;41.40;;;;;;5006856;28;20490;-74
2022/12/02 03:35:20;;;;;;;19.43;11.23;;;4.50;41.50;;;;;;5005509;28;20467;-74
2022/12/02 03:37:47;;;;;;;21.10;12.03;;;4.50;41.50;;;;;;5002784;28;21037;-74
2022/12/02 03:40:14;;;;;;;21.83;12.03;;;4.60;41.40;;;;;;5001410;28;20451;-73
2022/12/02 03:42:41;;;;;;;24.43;12.87;;;4.50;41.40;;;;;;5002758;28;20551;-73
2022/12/02 03:45:10;;;;;;;20.13;11.80;;;4.50;41.50;;;;;;4995796;28;20498;-73
2022/12/02 03:47:37;;;;;;;21.07;11.03;;;4.50;41.50;;;;;;5001301;28;21169;-73
2022/12/02 03:50:06;;;;;;;22.70;12.20;;;4.50;41.50;;;;;;5005046;28;20471;-73
2022/12/02 03:52:33;;;;;;;21.17;11.40;;;4.50;41.60;;;;;;5005096;28;20534;-74
2022/12/02 03:55:00;;;;;;;26.80;13.13;;;4.50;41.70;;;;;;5001703;28;20995;-73
2022/12/02 03:57:27;;;;;;;19.90;12.10;;;4.60;41.70;;;;;;4998374;28;20452;-72
2022/12/02 03:59:54;;;;;;;22.60;12.80;;;4.60;41.70;;;;;;5004381;28;20459;-73
2022/12/02 04:02:21;;;;;;;21.03;12.80;;;4.60;41.60;;;;;;4993823;28;20491;-73
2022/12/02 04:04:47;;;;;;;22.67;13.13;;;4.60;41.50;;;;;;4995131;28;20456;-74
2022/12/02 04:07:16;;;;;;;24.07;13.50;;;4.70;41.50;;;;;;4998706;28;20460;-73
2022/12/02 04:09:42;;;;;;;24.00;12.20;;;4.60;41.40;;;;;;5000393;28;20471;-73
2022/12/02 04:12:09;;;;;;;22.27;12.23;;;4.60;41.30;;;;;;5001419;28;20463;-73
2022/12/02 04:14:36;;;;;;;20.23;12.23;;;4.60;41.30;;;;;;4998583;28;20480;-73
2022/12/02 04:17:03;;;;;;;23.07;12.87;;;4.60;41.40;;;;;;4999996;28;20460;-74
2022/12/02 04:19:29;;;;;;;24.00;12.87;;;4.60;41.40;;;;;;4998764;28;20483;-74
2022/12/02 04:21:56;;;;;;;22.67;12.47;;;4.50;41.50;;;;;;4999914;28;20486;-74
2022/12/02 04:24:24;;;;;;;26.00;13.40;;;4.50;41.50;;;;;;4995651;28;20991;-73
2022/12/02 04:26:51;;;;;;;21.67;12.27;;;4.50;41.50;;;;;;4998424;28;21001;-73
2022/12/02 04:29:18;;;;;;;22.07;13.13;;;4.50;41.50;;;;;;5001967;28;20479;-73
2022/12/02 04:31:44;;;;;;;22.47;13.73;;;4.60;41.50;;;;;;4999354;28;20479;-73
2022/12/02 04:34:11;;;;;;;23.20;13.70;;;4.60;41.50;;;;;;4996104;28;20498;-73
2022/12/02 04:36:38;;;;;;;22.73;13.20;;;4.60;41.50;;;;;;4995509;28;20567;-73
2022/12/02 04:39:05;;;;;;;19.83;11.33;;;4.60;41.50;;;;;;5001742;28;20533;-72
2022/12/02 04:41:33;;;;;;;21.67;12.30;;;4.50;41.50;;;;;;4999955;28;20463;-74
2022/12/02 04:44:00;;;;;;;23.83;13.37;;;4.50;41.60;;;;;;4997291;28;20472;-73
2022/12/02 04:46:27;;;;;;;25.93;12.60;;;4.60;41.40;;;;;;4995870;28;20464;-73
2022/12/02 04:48:53;;;;;;;25.80;12.37;;;4.60;41.40;;;;;;5002860;28;20853;-73
2022/12/02 04:51:20;;;;;;;25.13;12.70;;;4.60;41.50;;;;;;4996332;28;20840;-73
2022/12/02 04:53:47;;;;;;;20.57;11.50;;;4.60;41.50;;;;;;5003275;28;20484;-73
2022/12/02 04:56:14;;;;;;;20.53;12.43;;;4.60;41.60;;;;;;4997882;28;20464;-73
2022/12/02 04:58:42;;;;;;;19.20;11.63;;;4.60;41.60;;;;;;5002409;28;20487;-73
2022/12/02 05:01:08;;;;;;;19.77;10.37;;;4.70;41.60;;;;;;5003975;28;20479;-73
2022/12/02 05:03:35;;;;;;;20.47;12.23;;;4.70;41.50;;;;;;5001952;28;20462;-72
2022/12/02 05:06:02;;;;;;;20.07;11.77;;;4.70;41.40;;;;;;5001905;28;20475;-72
2022/12/02 05:08:29;;;;;;;19.63;11.20;;;4.70;41.40;;;;;;4999594;28;21197;-71
2022/12/02 05:10:56;;;;;;;20.10;11.20;;;4.70;41.40;;;;;;5001656;28;20475;-71
2022/12/02 05:13:22;;;;;;;18.03;10.30;;;4.70;41.30;;;;;;4994046;28;20488;-70
2022/12/02 05:15:51;;;;;;;20.30;10.53;;;4.70;41.20;;;;;;4998318;28;20459;-71
2022/12/02 05:18:17;;;;;;;18.20;10.93;;;4.70;41.20;;;;;;5002641;28;20491;-71
2022/12/02 05:20:44;;;;;;;18.87;11.00;;;4.70;41.20;;;;;;5000949;28;20464;-71
2022/12/02 05:23:12;;;;;;;19.40;11.10;;;4.70;41.20;;;;;;4998807;28;20459;-71
2022/12/02 05:25:39;;;;;;;19.70;11.47;;;4.70;41.10;;;;;;4999153;28;20457;-71
2022/12/02 05:28:06;;;;;;;22.53;10.80;;;4.70;41.10;;;;;;5006701;28;20502;-71
2022/12/02 05:30:32;;;;;;;20.40;10.93;;;4.70;41.10;;;;;;4999787;28;20480;-71
2022/12/02 05:33:01;;;;;;;21.53;12.20;;;4.80;40.90;;;;;;4993569;28;20469;-71
2022/12/02 05:35:27;;;;;;;20.57;11.07;;;4.70;40.80;;;;;;4996201;28;20472;-70
2022/12/02 05:37:54;;;;;;;20.70;11.37;;;4.70;40.90;;;;;;5000124;28;20503;-72
2022/12/02 05:40:21;;;;;;;21.37;11.10;;;4.70;40.90;;;;;;5002686;28;21030;-70
2022/12/02 05:42:48;;;;;;;21.00;10.87;;;4.70;40.90;;;;;;4996586;28;20459;-69
2022/12/02 05:45:18;;;;;;;22.80;11.67;;;4.60;41.60;;;;;;4998527;28;20467;-70
2022/12/02 05:47:49;;;;;;;20.87;11.47;;;4.60;40.80;;;;;;5003152;28;20488;-70
2022/12/02 05:50:18;;;;;;;26.47;14.10;;;4.60;41.00;;;;;;5007168;28;20471;-70
2022/12/02 05:52:45;;;;;;;23.40;12.83;;;4.60;41.10;;;;;;4995874;28;20460;-70
2022/12/02 05:55:14;;;;;;;22.27;13.47;;;4.60;41.10;;;;;;4996304;28;20476;-70
2022/12/02 05:57:41;;;;;;;24.63;12.30;;;4.60;41.20;;;;;;5001073;28;20480;-70
2022/12/02 06:00:17;;;;;;;23.83;13.50;;;4.60;41.20;;;;;;5002699;28;20460;-70
2022/12/02 06:02:46;;;;;;;21.77;13.00;;;4.60;41.30;;;;;;5018737;28;20467;-69
2022/12/02 06:05:20;;;;;;;22.77;12.50;;;4.60;41.20;;;;;;5025448;28;20465;-70
2022/12/02 06:07:49;;;;;;;25.83;13.83;;;4.60;41.20;;;;;;5020271;28;20490;-68
2022/12/02 06:10:24;;;;;;;24.80;13.97;;;4.60;41.20;;;;;;5019489;28;20478;-68
2022/12/02 06:12:54;;;;;;;24.40;13.60;;;4.70;41.30;;;;;;5016723;28;20457;-68
2022/12/02 06:15:21;;;;;;;24.97;13.87;;;4.70;41.30;;;;;;5025581;28;20465;-68
2022/12/02 06:17:47;;;;;;;27.30;14.47;;;4.70;41.30;;;;;;5018128;28;21015;-69
2022/12/02 06:20:24;;;;;;;23.50;14.23;;;4.70;41.30;;;;;;5024351;28;20460;-71
2022/12/02 06:22:51;;;;;;;28.00;13.67;;;4.70;41.30;;;;;;5021145;28;20463;-69
2022/12/02 06:25:24;;;;;;;23.77;14.20;;;4.70;41.20;;;;;;5013583;28;20944;-70
2022/12/02 06:27:52;;;;;;;26.57;14.63;;;4.70;41.20;;;;;;5018244;28;20490;-68
2022/12/02 06:30:19;;;;;;;22.87;13.50;;;4.80;41.20;;;;;;5014758;28;20595;-69
2022/12/02 06:32:53;;;;;;;24.20;13.90;;;4.80;41.10;;;;;;5004543;28;20460;-70
2022/12/02 06:35:24;;;;;;;25.93;14.97;;;4.80;41.10;;;;;;4999650;28;20488;-71
2022/12/02 06:37:55;;;;;;;24.03;14.70;;;4.80;41.10;;;;;;4997864;28;20490;-70
2022/12/02 06:40:24;;;;;;;28.50;15.50;;;4.80;41.00;;;;;;4999180;28;20456;-70
2022/12/02 06:42:51;;;;;;;29.60;15.03;;;4.90;41.00;;;;;;5004327;28;20460;-69
2022/12/02 06:45:23;;;;;;;35.80;18.80;;;4.90;41.00;;;;;;4998474;28;20468;-69
2022/12/02 06:48:05;;;;;;;35.07;21.57;;;4.80;41.60;;;;;;4998336;28;20488;-69
2022/12/02 06:50:37;;;;;;;32.60;17.40;;;4.90;40.60;;;;;;4996336;28;20468;-70
2022/12/02 06:53:32;;;;;;;32.03;18.63;;;4.80;40.50;;;;;;5004572;28;20471;-67
2022/12/02 06:56:04;;;;;;;30.43;15.27;;;4.80;40.80;;;;;;4992448;28;20470;-66
2022/12/02 06:58:36;;;;;;;30.00;15.57;;;4.80;40.70;;;;;;4997785;28;21005;-64
2022/12/02 07:01:22;;;;;;;30.87;17.73;;;4.80;40.80;;;;;;5003264;28;20495;-64
2022/12/02 07:04:01;;;;;;;31.90;16.60;;;4.80;40.80;;;;;;5014199;28;20456;-65
2022/12/02 07:06:30;;;;;;;30.47;17.47;;;4.80;40.80;;;;;;5021664;28;20462;-65
2022/12/02 07:09:00;;;;;;;25.60;15.67;;;4.80;40.70;;;;;;5012276;28;21052;-63
2022/12/02 07:14:27;;;;;;;35.77;17.13;;;4.80;40.90;;;;;;5018818;28;20597;-65
2022/12/02 07:16:55;;;;;;;34.40;17.30;;;4.80;40.90;;;;;;5011541;28;20534;-64
2022/12/02 07:19:24;;;;;;;32.17;16.17;;;4.80;40.80;;;;;;5019304;28;20483;-63
2022/12/02 07:21:52;;;;;;;28.00;17.30;;;4.80;40.80;;;;;;5022342;28;20455;-64
2022/12/02 07:24:21;;;;;;;33.10;17.50;;;4.80;40.80;;;;;;5016935;28;20464;-63
2022/12/02 07:26:49;;;;;;;33.00;17.27;;;4.80;41.50;;;;;;5022879;28;20942;-64
2022/12/02 07:29:26;;;;;;;28.37;15.33;;;4.80;40.90;;;;;;5018174;28;20986;-63
2022/12/02 07:31:53;;;;;;;28.67;15.90;;;4.80;40.90;;;;;;5018890;28;20490;-64
2022/12/02 07:34:20;;;;;;;32.53;15.93;;;4.70;40.90;;;;;;5010888;28;20483;-64
2022/12/02 07:36:46;;;;;;;29.53;15.50;;;4.70;41.00;;;;;;5014731;28;20466;-67
2022/12/02 07:39:14;;;;;;;26.10;14.83;;;4.80;41.00;;;;;;5015618;28;20490;-64
2022/12/02 07:41:42;;;;;;;25.30;13.80;;;4.70;41.00;;;;;;5018272;28;20486;-67
2022/12/02 07:44:08;;;;;;;28.93;16.17;;;4.80;41.00;;;;;;5019109;28;20517;-63
2022/12/02 07:46:35;;;;;;;31.90;17.60;;;4.80;41.10;;;;;;5017450;28;20843;-63
2022/12/02 07:49:02;;;;;;;26.77;17.17;;;4.80;41.10;;;;;;5005648;28;20629;-67
2022/12/02 07:51:29;;;;;;;27.40;15.07;;;4.80;41.10;;;;;;5017901;28;20459;-67
2022/12/02 07:53:55;;;;;;;32.93;15.30;;;4.80;41.00;;;;;;5013217;28;20859;-67
2022/12/02 07:56:23;;;;;;;25.17;13.73;;;4.80;40.90;;;;;;5012144;28;20479;-68
2022/12/02 07:58:50;;;;;;;27.60;14.80;;;4.80;40.90;;;;;;5012886;28;20485;-69
2022/12/02 08:01:17;;;;;;;29.40;14.57;;;4.80;40.80;;;;;;5020074;28;20479;-73
2022/12/02 08:03:44;;;;;;;29.67;16.70;;;4.80;40.90;;;;;;5015740;28;20448;-73
2022/12/02 08:06:11;;;;;;;30.73;16.70;;;4.80;41.00;;;;;;5023747;28;20474;-69
2022/12/02 08:08:37;;;;;;;27.60;16.80;;;4.80;40.90;;;;;;5019618;28;20513;-72
2022/12/02 08:11:04;;;;;;;31.77;16.57;;;4.80;41.00;;;;;;5016358;28;21065;-68
2022/12/02 08:13:32;;;;;;;28.53;17.93;;;4.80;40.90;;;;;;5015858;28;20466;-65
2022/12/02 08:15:59;;;;;;;29.07;16.40;;;4.80;40.90;;;;;;5013426;28;20460;-71
2022/12/02 08:18:26;;;;;;;31.90;18.17;;;4.90;41.00;;;;;;5021170;28;20483;-71
2022/12/02 08:20:53;;;;;;;31.10;17.03;;;4.90;40.90;;;;;;5013865;28;20464;-71
2022/12/02 08:23:19;;;;;;;29.77;15.17;;;4.90;40.90;;;;;;5012720;28;21070;-71
2022/12/02 08:25:46;;;;;;;28.83;15.90;;;4.90;40.90;;;;;;5013899;28;20460;-71
2022/12/02 08:28:13;;;;;;;30.53;16.53;;;4.90;41.00;;;;;;5015761;28;20533;-72
2022/12/02 08:30:42;;;;;;;23.83;14.70;;;4.90;40.90;;;;;;5020410;28;20521;-71
2022/12/02 08:33:08;;;;;;;29.80;15.90;;;4.90;40.70;;;;;;5025826;28;20463;-71
2022/12/02 08:35:38;;;;;;;33.43;16.50;;;4.90;40.70;;;;;;5017116;28;20486;-71
2022/12/02 08:38:05;;;;;;;30.77;17.23;;;4.90;40.70;;;;;;5021435;28;20485;-71
2022/12/02 08:40:33;;;;;;;28.37;15.40;;;4.80;40.60;;;;;;5015516;28;20565;-65
2022/12/02 08:43:00;;;;;;;30.83;17.87;;;4.90;40.80;;;;;;5021131;28;20947;-68
2022/12/02 08:45:27;;;;;;;29.10;16.27;;;4.90;40.80;;;;;;5012410;28;20467;-62
2022/12/02 08:47:55;;;;;;;28.67;16.63;;;4.90;40.80;;;;;;5020821;28;20474;-64
2022/12/02 08:50:22;;;;;;;29.77;16.03;;;4.90;40.60;;;;;;5023421;28;20465;-67
2022/12/02 08:52:49;;;;;;;34.77;18.47;;;4.80;40.60;;;;;;5013768;28;20456;-69
2022/12/02 08:55:16;;;;;;;29.30;16.00;;;4.80;40.70;;;;;;5015277;28;20479;-69
2022/12/02 08:57:43;;;;;;;31.10;17.53;;;4.80;40.80;;;;;;5019792;28;20479;-68
2022/12/02 09:00:11;;;;;;;31.63;18.90;;;4.70;40.90;;;;;;5017406;28;20838;-69
2022/12/02 09:02:37;;;;;;;35.53;20.33;;;4.80;40.90;;;;;;5017927;28;20475;-68
2022/12/02 09:05:06;;;;;;;41.53;21.37;;;4.80;41.00;;;;;;5018354;28;20455;-69
2022/12/02 09:07:33;;;;;;;34.00;19.80;;;4.80;41.00;;;;;;5012090;28;20479;-64
2022/12/02 09:10:00;;;;;;;39.10;20.67;;;4.80;41.00;;;;;;5022826;28;20939;-64
2022/12/02 09:12:27;;;;;;;37.50;20.80;;;4.80;41.10;;;;;;5021473;28;22635;-70
2022/12/02 09:14:54;;;;;;;44.53;23.90;;;4.90;41.10;;;;;;5023927;28;20475;-70
2022/12/02 09:17:21;;;;;;;37.70;21.60;;;4.90;41.10;;;;;;5016382;28;20470;-69
2022/12/02 09:19:47;;;;;;;31.13;18.43;;;5.00;41.10;;;;;;5024236;28;20462;-69
2022/12/02 09:22:16;;;;;;;33.33;18.60;;;5.10;41.10;;;;;;5020043;28;20469;-70
2022/12/02 09:24:42;;;;;;;35.77;19.60;;;5.10;41.00;;;;;;5023363;28;20455;-74
2022/12/02 09:27:09;;;;;;;35.33;18.77;;;5.10;40.80;;;;;;5022619;28;21209;-71
2022/12/02 09:29:36;;;;;;;35.80;21.63;;;5.20;41.40;;;;;;5019790;28;21029;-68
2022/12/02 09:32:03;;;;;;;38.37;22.63;;;5.20;40.70;;;;;;5015074;28;20475;-71
2022/12/02 09:34:29;;;;;;;33.43;19.10;;;5.20;40.50;;;;;;5017540;28;20478;-72
2022/12/02 09:36:56;;;;;;;33.30;18.30;;;5.20;40.50;;;;;;5021444;28;20465;-65
2022/12/02 09:39:24;;;;;;;34.27;18.00;;;5.20;40.20;;;;;;5018369;28;20480;-64
2022/12/02 09:41:51;;;;;;;30.77;18.87;;;5.10;40.10;;;;;;5022574;28;20466;-70
2022/12/02 09:44:18;;;;;;;33.40;18.77;;;5.10;40.20;;;;;;5019188;28;20458;-71
2022/12/02 09:46:45;;;;;;;29.63;16.40;;;5.10;40.30;;;;;;5019489;28;21051;-71
2022/12/02 09:49:12;;;;;;;32.30;17.67;;;5.10;40.00;;;;;;5018484;28;20483;-71
2022/12/02 09:51:39;;;;;;;32.40;17.87;;;5.10;40.10;;;;;;5017325;28;20557;-71
2022/12/02 09:54:05;;;;;;;30.60;16.90;;;5.10;40.00;;;;;;5014290;28;20463;-74
2022/12/02 09:56:34;;;;;;;30.20;18.40;;;5.10;40.10;;;;;;5023252;28;20463;-69
2022/12/02 09:59:00;;;;;;;28.83;16.70;;;5.10;40.20;;;;;;5017875;28;20490;-65
2022/12/02 10:01:27;;;;;;;28.87;16.03;;;5.10;39.90;;;;;;5022495;28;20479;-74
2022/12/02 10:03:55;;;;;;;34.70;18.17;;;5.10;39.90;;;;;;5021632;28;20469;-73
2022/12/02 10:06:24;;;;;;;32.40;17.10;;;5.20;39.90;;;;;;5023359;28;20451;-73
2022/12/02 10:08:52;;;;;;;32.10;17.93;;;5.20;40.00;;;;;;5022078;28;20569;-73
2022/12/02 10:11:23;;;;;;;29.03;17.10;;;5.20;39.80;;;;;;5014685;28;20463;-73
2022/12/02 10:13:51;;;;;;;34.30;20.07;;;5.30;39.90;;;;;;5024550;28;20465;-74
2022/12/02 10:16:18;;;;;;;30.33;16.60;;;5.30;40.00;;;;;;5019432;28;20967;-74
2022/12/02 10:18:46;;;;;;;26.60;15.47;;;5.30;39.80;;;;;;5018430;28;20474;-75
2022/12/02 10:21:13;;;;;;;30.43;18.67;;;5.40;39.20;;;;;;5016709;28;20458;-74
2022/12/02 10:23:54;;;;;;;29.20;16.77;;;5.40;39.20;;;;;;5014787;28;20534;-68
2022/12/02 10:26:21;;;;;;;28.07;16.60;;;5.40;39.40;;;;;;5018366;28;20527;-66
2022/12/02 10:29:02;;;;;;;29.93;15.70;;;5.40;39.10;;;;;;5020100;28;21020;-66
2022/12/02 10:31:29;;;;;;;28.10;17.30;;;5.30;39.30;;;;;;5012519;28;20940;-69
2022/12/02 10:33:59;;;;;;;26.83;15.97;;;5.40;39.30;;;;;;5019031;28;20455;-69
2022/12/02 10:36:33;;;;;;;28.00;16.50;;;5.40;39.40;;;;;;5021451;28;20529;-69
2022/12/02 10:39:23;;;;;;;30.37;15.80;;;5.40;39.40;;;;;;5034058;28;20845;-70
2022/12/02 10:42:07;;;;;;;27.87;15.87;;;5.50;39.50;;;;;;5029102;28;20458;-71
2022/12/02 10:44:37;;;;;;;29.80;17.37;;;5.50;39.30;;;;;;5028523;28;20458;-70
2022/12/02 10:47:12;;;;;;;27.70;15.70;;;5.50;39.20;;;;;;5033791;28;20458;-70
2022/12/02 10:49:43;;;;;;;28.93;16.23;;;5.60;39.20;;;;;;5028588;28;21025;-69
2022/12/02 10:52:11;;;;;;;34.10;17.60;;;5.60;39.10;;;;;;5025153;28;20451;-70
2022/12/02 10:54:40;;;;;;;25.47;14.80;;;5.60;39.00;;;;;;5021560;28;20487;-70
2022/12/02 10:57:11;;;;;;;31.20;16.30;;;5.70;39.00;;;;;;5027304;28;20459;-70
2022/12/02 10:59:39;;;;;;;27.33;14.63;;;5.80;38.90;;;;;;5029116;28;21028;-69
2022/12/02 11:02:21;;;;;;;23.80;13.80;;;5.80;38.70;;;;;;5028199;28;20993;-70
2022/12/02 11:04:48;;;;;;;23.30;14.60;;;5.90;38.60;;;;;;5018615;28;20456;-69
2022/12/02 11:07:15;;;;;;;27.93;16.10;;;5.90;38.40;;;;;;5033895;28;20465;-70
2022/12/02 11:09:46;;;;;;;27.57;15.67;;;6.00;38.20;;;;;;5021328;28;20464;-70
2022/12/02 11:12:46;;;;;;;28.60;18.03;;;6.00;38.10;;;;;;5030814;28;20507;-70
2022/12/02 11:15:35;;;;;;;28.90;14.90;;;6.00;37.70;;;;;;5033510;28;20478;-70
2022/12/02 11:18:02;;;;;;;26.20;16.20;;;6.00;37.50;;;;;;5025895;28;21071;-70
2022/12/02 11:20:38;;;;;;;26.00;16.00;;;6.00;37.10;;;;;;5027116;28;20465;-70
2022/12/02 11:23:16;;;;;;;28.17;15.10;;;6.00;37.00;;;;;;5031800;28;20845;-71
2022/12/02 11:26:01;;;;;;;25.97;16.63;;;6.00;37.10;;;;;;5035182;28;20455;-71
2022/12/02 11:29:04;;;;;;;27.60;15.97;;;6.00;37.20;;;;;;5035771;28;20488;-70
2022/12/02 11:31:33;;;;;;;27.07;14.97;;;6.00;37.00;;;;;;5027680;28;20465;-68
2022/12/02 11:34:02;;;;;;;24.80;15.10;;;6.00;36.90;;;;;;5020910;28;20461;-70
2022/12/02 11:36:30;;;;;;;29.27;16.90;;;5.90;37.00;;;;;;5037628;28;21016;-69
2022/12/02 11:39:04;;;;;;;27.67;16.50;;;5.90;37.10;;;;;;5033895;28;20978;-70
2022/12/02 11:41:52;;;;;;;25.43;16.67;;;5.90;37.20;;;;;;5042676;28;20497;-69
2022/12/02 11:44:24;;;;;;;29.70;15.20;;;5.90;37.20;;;;;;5027052;28;20584;-70
2022/12/02 11:46:54;;;;;;;26.00;16.17;;;6.00;37.20;;;;;;5034991;28;20457;-69
2022/12/02 11:49:33;;;;;;;31.63;16.37;;;6.00;37.10;;;;;;5032133;28;20481;-68
2022/12/02 11:52:04;;;;;;;29.47;17.13;;;6.00;37.20;;;;;;5033872;28;20462;-68
2022/12/02 11:54:31;;;;;;;28.50;15.73;;;6.00;37.10;;;;;;5027851;28;20454;-69
2022/12/02 11:56:58;;;;;;;26.33;16.07;;;6.00;37.10;;;;;;5019718;28;20459;-71
2022/12/02 11:59:27;;;;;;;25.50;15.33;;;6.10;36.80;;;;;;5040821;28;20474;-70
2022/12/02 12:02:10;;;;;;;41.80;26.70;;;6.10;36.80;;;;;;5034301;28;20471;-69
2022/12/02 12:04:37;;;;;;;29.60;17.07;;;6.10;36.90;;;;;;5025754;28;20463;-69
2022/12/02 12:07:04;;;;;;;23.63;14.10;;;6.10;36.60;;;;;;5031534;28;20469;-69
2022/12/02 12:09:31;;;;;;;25.50;15.43;;;6.10;36.60;;;;;;5024925;28;20494;-69
2022/12/02 12:12:16;;;;;;;25.10;13.90;;;6.10;36.40;;;;;;5031387;28;20462;-69
2022/12/02 12:14:57;;;;;;;25.70;15.13;;;6.10;36.20;;;;;;5036118;28;20950;-69
2022/12/02 12:17:45;;;;;;;31.23;18.30;;;6.10;36.20;;;;;;5030541;28;20458;-70
2022/12/02 12:20:44;;;;;;;26.60;16.03;;;6.10;36.30;;;;;;5026919;28;20536;-69
2022/12/02 12:23:28;;;;;;;28.20;16.80;;;6.20;36.40;;;;;;5015022;28;21220;-70
2022/12/02 12:25:55;;;;;;;29.63;17.90;;;6.10;36.20;;;;;;5018195;28;20515;-79
2022/12/02 12:28:25;;;;;;;41.70;23.60;;;6.10;36.00;;;;;;5023020;28;20497;-80
2022/12/02 12:30:52;;;;;;;30.00;18.30;;;6.10;36.20;;;;;;5018170;28;20478;-77
2022/12/02 12:33:21;;;;;;;39.37;22.07;;;6.00;36.20;;;;;;5021882;28;20459;-77
2022/12/02 12:35:48;;;;;;;32.80;19.07;;;6.00;36.40;;;;;;5016260;28;20476;-79
2022/12/02 12:38:14;;;;;;;35.97;19.70;;;6.00;36.40;;;;;;5016616;28;20987;-78
2022/12/02 12:40:41;;;;;;;27.27;15.40;;;6.00;36.50;;;;;;5018017;28;20463;-78
2022/12/02 12:43:08;;;;;;;23.70;14.13;;;6.00;36.40;;;;;;5019246;28;20503;-77
2022/12/02 12:45:35;;;;;;;24.43;15.10;;;6.00;36.10;;;;;;5019608;28;20461;-78
2022/12/02 12:48:01;;;;;;;22.67;14.90;;;6.00;36.00;;;;;;5025305;28;20501;-79
2022/12/02 12:50:30;;;;;;;26.77;16.23;;;6.00;36.00;;;;;;5023889;28;20812;-79